Time;durP1;ratioP1;P1;durP2;ratioP2;P2;SDS_P1;SDS_P2;PMS_P1;PMS_P2;Temp;Humidity;BMP_temperature;BMP_pressure;BME280_temperature;BME280_humidity;BME280_pressure;Samples;Min_cycle;Max_cycle;Signal;HPM_P1;HPM_P2
2023/05/24 00:00:41;;;;;;;;;2.00;2.00;;;;;-146.67;30.00;75298.56;5083284;27;61724;-86
2023/05/24 00:03:07;;;;;;;;;2.00;2.00;;;;;-146.67;30.20;75298.56;5081985;27;62078;-86
2023/05/24 00:05:36;;;;;;;;;2.00;2.00;;;;;-146.67;30.03;75282.59;5081257;28;62002;-87
2023/05/24 00:08:02;;;;;;;;;3.00;2.00;;;;;-146.67;30.23;75314.53;5082557;27;61817;-86
2023/05/24 00:10:27;;;;;;;;;6.25;3.25;;;;;-146.67;30.45;75318.53;5081759;28;61777;-86
2023/05/24 00:12:52;;;;;;;;;5.50;3.00;;;;;-146.67;30.17;75306.56;5082267;27;61881;-87
2023/05/24 00:15:18;;;;;;;;;4.00;1.50;;;;;-146.67;30.27;75302.56;5081247;28;61917;-87
2023/05/24 00:17:43;;;;;;;;;3.25;1.75;;;;;-146.67;30.37;75306.56;5082273;27;62191;-87
2023/05/24 00:20:10;;;;;;;;;3.00;2.00;;;;;-146.67;30.48;75304.56;5081121;28;61738;-86
2023/05/24 00:22:36;;;;;;;;;3.00;3.00;;;;;-146.67;30.60;75306.56;5080303;28;64548;-87
2023/05/24 00:25:02;;;;;;;;;4.00;2.25;;;;;-146.67;30.32;75310.56;5080905;28;62170;-86
2023/05/24 00:27:27;;;;;;;;;1.50;1.50;;;;;-146.67;30.35;75310.56;5082565;27;61870;-87
2023/05/24 00:29:53;;;;;;;;;2.50;1.50;;;;;-146.67;30.43;75308.56;5082716;27;62166;-86
2023/05/24 00:32:18;;;;;;;;;3.00;1.00;;;;;-146.67;30.66;75314.53;5081869;27;62078;-86
2023/05/24 00:34:43;;;;;;;;;3.00;1.50;;;;;-146.67;30.73;75326.53;5082264;27;61844;-86
2023/05/24 00:37:09;;;;;;;;;4.00;3.00;;;;;-146.67;30.71;75322.53;5081970;27;61750;-87
2023/05/24 00:39:34;;;;;;;;;3.75;3.75;;;;;-146.67;30.86;75342.50;5082505;27;61887;-86
2023/05/24 00:41:59;;;;;;;;;4.50;1.75;;;;;-146.67;30.78;75350.50;5081812;27;61799;-87
2023/05/24 00:44:25;;;;;;;;;2.25;2.00;;;;;-146.67;31.06;75364.47;5082087;27;62095;-86
2023/05/24 00:46:50;;;;;;;;;3.25;2.50;;;;;-146.67;31.10;75382.44;5081632;27;61786;-85
2023/05/24 00:49:16;;;;;;;;;2.25;2.00;;;;;-146.67;31.14;75372.44;5085753;27;62133;-86
2023/05/24 00:51:41;;;;;;;;;4.50;1.25;;;;;-146.67;31.21;75374.44;5083568;28;63821;-86
2023/05/24 00:54:07;;;;;;;;;2.00;2.00;;;;;-146.67;31.18;75366.47;5101188;27;61918;-86
2023/05/24 00:56:33;;;;;;;;;2.75;2.00;;;;;-146.67;31.39;75416.38;5084533;28;61841;-86
2023/05/24 00:58:59;;;;;;;;;1.00;1.00;;;;;-146.67;31.56;75408.41;5085866;27;61790;-86
2023/05/24 01:01:25;;;;;;;;;0.33;0.33;;;;;-146.67;31.28;75402.41;5084981;27;62085;-86
2023/05/24 01:03:52;;;;;;;;;1.50;1.50;;;;;-146.67;31.51;75398.41;5085483;28;62033;-86
2023/05/24 01:06:18;;;;;;;;;4.50;3.00;;;;;-146.67;31.52;75412.38;5085173;27;62066;-86
2023/05/24 01:09:06;;;;;;;;;3.75;3.00;;;;;-146.67;31.35;75418.38;5085922;28;61943;-86
2023/05/24 01:11:46;;;;;;;;;5.00;3.25;;;;;-146.67;31.49;75414.38;5084647;28;61891;-86
2023/05/24 01:14:15;;;;;;;;;4.25;2.75;;;;;-146.67;31.54;75424.38;5083874;28;61756;-85
2023/05/24 01:17:02;;;;;;;;;8.00;4.00;;;;;-146.67;31.68;75432.34;5085757;27;61895;-86
2023/05/24 01:19:58;;;;;;;;;5.00;2.00;;;;;-146.67;31.53;75422.38;5085251;28;61787;-86
2023/05/24 01:22:52;;;;;;;;;4.00;3.00;;;;;-146.67;31.58;75428.38;5082768;28;63871;-86
2023/05/24 01:26:05;;;;;;;;;7.50;4.00;;;;;-146.67;31.49;75420.38;5085229;28;61942;-86
2023/05/24 01:28:33;;;;;;;;;3.00;3.00;;;;;-146.67;31.59;75410.41;5042127;28;62127;-86
2023/05/24 01:30:59;;;;;;;;;2.75;2.00;;;;;-146.67;31.65;75412.38;5041541;28;61870;-85
2023/05/24 01:33:25;;;;;;;;;5.25;2.75;;;;;-146.67;31.80;75412.38;5040500;28;62031;-86
2023/05/24 01:35:51;;;;;;;;;1.00;0.00;;;;;-146.67;31.81;75420.38;5040362;28;61908;-86
2023/05/24 01:38:16;;;;;;;;;7.00;3.00;;;;;-146.67;31.74;75418.38;5041098;28;62372;-86
2023/05/24 01:40:46;;;;;;;;;2.25;2.25;;;;;-146.67;31.70;75420.38;5041647;28;61844;-86
2023/05/24 01:43:35;;;;;;;;;4.00;3.00;;;;;-146.67;31.52;75424.38;5040839;28;61933;-86
2023/05/24 01:46:21;;;;;;;;;2.50;2.50;;;;;-146.67;31.76;75464.31;5041261;28;61838;-86
2023/05/24 01:48:55;;;;;;;;;4.25;2.75;;;;;-146.67;31.59;75418.38;5040905;28;61877;-85
2023/05/24 01:51:23;;;;;;;;;3.00;3.00;;;;;-146.67;31.73;75424.38;5041855;28;61771;-86
2023/05/24 01:53:51;;;;;;;;;8.00;3.00;;;;;-146.67;31.99;75450.34;5041221;28;63261;-87
2023/05/24 01:56:19;;;;;;;;;4.50;2.00;;;;;-146.67;31.94;75462.31;5041939;28;62034;-86
2023/05/24 01:58:46;;;;;;;;;3.25;1.75;;;;;-146.67;32.05;75474.28;5041413;28;62291;-85
2023/05/24 02:01:12;;;;;;;;;1.50;1.25;;;;;-146.67;32.21;75464.31;5042261;28;61819;-86
2023/05/24 02:03:39;;;;;;;;;3.75;3.75;;;;;-146.67;32.26;75468.31;5097652;27;63778;-86
2023/05/24 02:06:05;;;;;;;;;6.50;4.00;;;;;-146.67;32.40;75482.28;5084311;27;61855;-86
2023/05/24 02:08:31;;;;;;;;;2.00;2.00;;;;;-146.67;32.38;75488.28;5084584;27;61760;-86
2023/05/24 02:10:56;;;;;;;;;7.75;5.00;;;;;-146.67;32.32;75500.25;5100542;27;62036;-86
2023/05/24 02:13:21;;;;;;;;;4.00;2.25;;;;;-146.67;31.92;75484.28;5082816;28;63533;-87
2023/05/24 02:15:47;;;;;;;;;8.50;4.00;;;;;-146.67;32.44;75492.28;5084273;28;62143;-87
2023/05/24 02:18:13;;;;;;;;;2.50;1.00;;;;;-146.67;32.42;75506.25;5084148;28;61722;-86
2023/05/24 02:20:39;;;;;;;;;3.50;2.00;;;;;-146.67;32.54;75510.25;5082592;28;61863;-85
2023/05/24 02:23:05;;;;;;;;;2.00;2.00;;;;;-146.67;32.54;75504.25;5083949;28;62855;-86
2023/05/24 02:25:31;;;;;;;;;5.00;2.00;;;;;-146.67;32.43;75504.25;5084172;28;61772;-86
2023/05/24 02:27:58;;;;;;;;;4.00;2.25;;;;;-146.67;32.45;75498.25;5100280;27;62312;-86
2023/05/24 02:30:23;;;;;;;;;4.75;3.00;;;;;-146.67;32.56;75510.25;5083131;28;61988;-86
2023/05/24 02:32:48;;;;;;;;;4.00;3.00;;;;;-146.67;32.63;75510.25;5083249;28;62248;-86
2023/05/24 02:35:14;;;;;;;;;3.00;3.00;;;;;-146.67;32.70;75508.25;5099749;27;62133;-86
2023/05/24 02:37:39;;;;;;;;;4.25;2.00;;;;;-146.67;32.60;75506.25;5084274;27;61828;-86
2023/05/24 02:40:05;;;;;;;;;1.25;1.25;;;;;-146.67;32.61;75500.25;5100041;27;62139;-86
2023/05/24 02:42:31;;;;;;;;;1.50;1.50;;;;;-146.67;32.89;75518.22;5083530;27;62119;-86
2023/05/24 02:44:56;;;;;;;;;5.00;4.00;;;;;-146.67;32.89;75526.22;5083852;28;62020;-87
2023/05/24 02:47:22;;;;;;;;;6.50;4.00;;;;;-146.67;33.11;75538.19;5077527;27;61873;-86
2023/05/24 02:49:47;;;;;;;;;3.75;2.25;;;;;-146.67;32.95;75538.19;5096208;27;62501;-86
2023/05/24 02:52:13;;;;;;;;;5.00;3.75;;;;;-146.67;32.68;75522.22;5061736;28;63529;-86
2023/05/24 02:54:38;;;;;;;;;4.50;3.25;;;;;-146.67;33.01;75526.22;5061846;28;62259;-86
2023/05/24 02:57:05;;;;;;;;;2.00;2.00;;;;;-146.67;33.02;75526.22;5063711;28;62204;-86
2023/05/24 02:59:32;;;;;;;;;3.25;2.00;;;;;-146.67;33.03;75526.22;5075244;28;61804;-85
2023/05/24 03:01:57;;;;;;;;;5.00;4.00;;;;;-146.67;33.05;75530.22;5098539;27;64109;-86
2023/05/24 03:04:23;;;;;;;;;3.75;2.00;;;;;-146.67;32.68;75522.22;5083661;28;62172;-86
2023/05/24 03:06:48;;;;;;;;;6.50;4.75;;;;;-146.67;32.97;75522.22;5083558;27;61989;-86
2023/05/24 03:09:15;;;;;;;;;4.50;2.00;;;;;-146.67;33.01;75530.22;5084053;28;61753;-86
2023/05/24 03:11:41;;;;;;;;;2.25;2.25;;;;;-146.67;33.04;75536.19;5082422;27;61938;-86
2023/05/24 03:14:08;;;;;;;;;2.00;2.00;;;;;-146.67;33.12;75532.22;5099165;27;62146;-86
2023/05/24 03:16:34;;;;;;;;;3.50;3.50;;;;;-146.67;32.90;75514.22;5083639;27;62102;-86
2023/05/24 03:18:59;;;;;;;;;3.00;3.00;;;;;-146.67;33.04;75506.25;5083045;27;61810;-86
2023/05/24 03:21:25;;;;;;;;;4.00;2.50;;;;;-146.67;32.84;75526.22;5083189;28;62083;-86
2023/05/24 03:23:50;;;;;;;;;4.00;3.25;;;;;-146.67;32.78;75516.22;5083307;28;61918;-86
2023/05/24 03:26:17;;;;;;;;;4.75;3.00;;;;;-146.67;32.91;75522.22;5083454;28;62321;-86
2023/05/24 03:28:44;;;;;;;;;4.50;3.00;;;;;-146.67;33.14;75528.22;5083626;27;62220;-85
2023/05/24 03:31:09;;;;;;;;;5.25;3.75;;;;;-146.67;33.15;75538.19;5082354;27;62110;-86
2023/05/24 03:33:35;;;;;;;;;6.75;3.50;;;;;-146.67;33.12;75546.19;5098911;27;61974;-86
2023/05/24 03:36:01;;;;;;;;;3.00;3.00;;;;;-146.67;33.21;75540.19;5083071;28;61952;-87
2023/05/24 03:38:26;;;;;;;;;2.50;2.50;;;;;-146.67;32.95;75544.19;5083567;27;62082;-86
2023/05/24 03:40:52;;;;;;;;;4.00;3.00;;;;;-146.67;33.27;75546.19;5080862;28;63895;-86
2023/05/24 03:43:17;;;;;;;;;5.75;3.25;;;;;-146.67;33.18;75544.19;5083106;28;61875;-86
2023/05/24 03:45:43;;;;;;;;;7.00;5.25;;;;;-146.67;33.20;75546.19;5082923;27;61966;-87
2023/05/24 03:48:08;;;;;;;;;4.00;2.00;;;;;-146.67;33.23;75550.19;5081164;27;61721;-86
2023/05/24 03:50:34;;;;;;;;;7.50;4.00;;;;;-146.67;32.98;75550.19;5081020;28;63344;-86
2023/05/24 03:52:59;;;;;;;;;4.25;3.25;;;;;-146.67;33.21;75548.19;5082743;28;62261;-86
2023/05/24 03:55:25;;;;;;;;;3.75;3.75;;;;;-146.67;33.09;75544.19;5082985;27;61917;-86
2023/05/24 03:57:50;;;;;;;;;4.50;3.00;;;;;-146.67;33.06;75546.19;5098567;27;61831;-86
2023/05/24 04:00:16;;;;;;;;;5.75;3.75;;;;;-146.67;33.01;75546.19;5097400;27;64809;-86
2023/05/24 04:02:41;;;;;;;;;7.50;2.25;;;;;-146.67;33.14;75546.19;5082946;28;61810;-86
2023/05/24 04:05:08;;;;;;;;;8.00;4.50;;;;;-146.67;33.12;75542.19;5082461;27;62425;-87
2023/05/24 04:07:35;;;;;;;;;2.75;2.75;;;;;-146.67;32.89;75526.22;5098698;27;62126;-86
2023/05/24 04:10:02;;;;;;;;;1.75;1.75;;;;;-146.67;32.89;75526.22;5082097;28;61933;-87
2023/05/24 04:12:27;;;;;;;;;6.25;3.75;;;;;-146.67;32.90;75526.22;5098104;27;62054;-87
2023/05/24 04:14:53;;;;;;;;;4.00;4.00;;;;;-146.67;32.71;75524.22;5081068;28;62199;-87
2023/05/24 04:17:18;;;;;;;;;2.75;1.00;;;;;-146.67;32.95;75526.22;5082642;27;61935;-87
2023/05/24 04:19:45;;;;;;;;;2.25;2.00;;;;;-146.67;32.92;75528.22;5080621;28;64675;-87
2023/05/24 04:22:11;;;;;;;;;3.00;2.00;;;;;-146.67;32.94;75530.22;5096898;27;61791;-87
2023/05/24 04:24:36;;;;;;;;;6.00;4.00;;;;;-146.67;32.77;75532.22;5082790;27;62062;-87
2023/05/24 04:27:01;;;;;;;;;4.00;2.25;;;;;-146.67;32.64;75540.19;5082421;27;61724;-86
2023/05/24 04:29:27;;;;;;;;;2.75;2.75;;;;;-146.67;32.89;75540.19;5097341;27;63713;-87
2023/05/24 04:31:52;;;;;;;;;2.50;2.25;;;;;-146.67;32.72;75536.19;5082686;27;61810;-86
2023/05/24 04:34:21;;;;;;;;;4.25;2.00;;;;;-146.67;32.80;75544.19;5082103;27;61874;-85
2023/05/24 04:36:48;;;;;;;;;3.75;2.00;;;;;-146.67;32.80;75552.19;5083081;27;62032;-86
2023/05/24 04:39:13;;;;;;;;;4.50;3.00;;;;;-146.67;32.84;75552.19;5098105;27;64099;-87
2023/05/24 04:41:39;;;;;;;;;3.75;2.75;;;;;-146.67;32.80;75574.13;5082525;27;61937;-86
2023/05/24 04:44:04;;;;;;;;;5.50;2.75;;;;;-146.67;32.77;75562.16;5081780;27;61884;-86
2023/05/24 04:46:30;;;;;;;;;3.50;3.00;;;;;-146.67;33.01;75562.16;5082259;27;61754;-87
2023/05/24 04:48:55;;;;;;;;;6.50;2.50;;;;;-146.67;32.81;75558.16;5080926;28;62074;-85
2023/05/24 04:51:21;;;;;;;;;6.00;2.75;;;;;-146.67;32.86;75558.16;5082136;27;61808;-86
2023/05/24 04:53:47;;;;;;;;;6.25;3.00;;;;;-146.67;32.89;75562.16;5080852;28;61726;-86
2023/05/24 04:56:15;;;;;;;;;4.50;3.00;;;;;-146.67;32.92;75566.16;5080625;28;61927;-86
2023/05/24 04:58:41;;;;;;;;;4.75;3.25;;;;;-146.67;33.02;75568.16;5097191;27;64450;-86
2023/05/24 05:01:06;;;;;;;;;4.25;3.75;;;;;-146.67;32.95;75566.16;5081942;27;61802;-86
2023/05/24 05:03:32;;;;;;;;;2.00;2.00;;;;;-146.67;33.04;75560.16;5081875;27;62053;-86
2023/05/24 05:05:58;;;;;;;;;5.00;2.50;;;;;-146.67;32.78;75546.19;5097773;27;62248;-86
2023/05/24 05:08:23;;;;;;;;;3.25;2.75;;;;;-146.67;32.64;75538.19;5081215;28;61952;-85
2023/05/24 05:10:49;;;;;;;;;5.00;2.00;;;;;-146.67;32.55;75534.19;5081998;28;62079;-85
2023/05/24 05:13:14;;;;;;;;;4.50;4.00;;;;;-146.67;32.52;75536.19;5061821;28;61862;-83
2023/05/24 05:15:40;;;;;;;;;4.00;2.50;;;;;-146.67;32.28;75540.19;5064127;28;61741;-89
2023/05/24 05:18:05;;;;;;;;;6.00;3.50;;;;;-146.67;32.53;75546.19;5060913;28;61715;-89
2023/05/24 05:20:30;;;;;;;;;4.00;3.00;;;;;-146.67;32.46;75540.19;5074308;28;61745;-89
2023/05/24 05:22:56;;;;;;;;;5.00;3.25;;;;;-146.67;32.36;75530.22;5081904;28;61847;-87
2023/05/24 05:25:21;;;;;;;;;5.00;2.75;;;;;-146.67;32.52;75520.22;5081928;28;61760;-90
2023/05/24 05:27:46;;;;;;;;;3.50;3.50;;;;;-146.67;32.42;75508.25;5080568;28;62216;-87
2023/05/24 05:30:12;;;;;;;;;6.25;2.75;;;;;-146.67;32.27;75496.25;5079949;28;62194;-87
2023/05/24 05:32:38;;;;;;;;;6.25;2.25;;;;;-146.67;31.99;75486.28;5080387;28;61994;-86
2023/05/24 05:35:04;;;;;;;;;2.00;2.00;;;;;-146.67;31.87;75452.31;5082264;28;62137;-88
2023/05/24 05:37:30;;;;;;;;;2.50;1.75;;;;;-146.67;31.56;75434.34;5083159;28;62106;-86
2023/05/24 05:39:55;;;;;;;;;4.25;2.00;;;;;-146.67;31.55;75426.38;5083878;27;61898;-85
2023/05/24 05:42:21;;;;;;;;;1.75;1.50;;;;;-146.67;31.09;75396.41;5081645;28;62380;-88
2023/05/24 05:44:46;;;;;;;;;2.50;2.00;;;;;-146.67;31.10;75374.44;5089141;27;61903;-90
2023/05/24 05:47:11;;;;;;;;;4.00;2.00;;;;;-146.67;30.71;75336.50;5097465;27;63692;-90
2023/05/24 05:49:37;;;;;;;;;5.50;2.25;;;;;-146.67;30.45;75306.56;5084025;27;61916;-89
2023/05/24 05:52:04;;;;;;;;;6.25;2.25;;;;;-146.67;30.55;75280.59;5084097;27;61783;-88
2023/05/24 05:54:30;;;;;;;;;3.75;2.75;;;;;-146.67;30.23;75260.63;5083196;27;61792;-83
2023/05/24 05:56:55;;;;;;;;;5.50;2.25;;;;;-146.67;30.10;75248.66;5078357;28;64492;-88
2023/05/24 05:59:21;;;;;;;;;3.75;2.75;;;;;-146.67;30.29;75244.66;5083914;28;61691;-87
2023/05/24 06:01:47;;;;;;;;;3.50;3.50;;;;;-146.67;29.95;75218.69;5078466;28;61963;-87
2023/05/24 06:04:15;;;;;;;;;4.00;4.00;;;;;-146.67;29.97;75190.75;5076019;27;61816;-87
2023/05/24 06:06:41;;;;;;;;;2.50;2.50;;;;;-146.67;29.95;75170.78;5083918;28;61901;-88
2023/05/24 06:09:07;;;;;;;;;4.50;1.00;;;;;-146.67;29.86;75192.75;5084544;27;61840;-86
2023/05/24 06:11:32;;;;;;;;;8.75;2.50;;;;;-146.67;29.55;75170.78;5082870;28;61757;-88
2023/05/24 06:13:58;;;;;;;;;3.50;2.25;;;;;-146.67;29.30;75114.88;5084506;27;61726;-86
2023/05/24 06:16:24;;;;;;;;;6.00;3.00;;;;;-146.67;29.18;75050.97;5081869;28;64604;-86
2023/05/24 06:18:49;;;;;;;;;3.25;3.25;;;;;-146.67;28.15;74931.16;5083867;27;61853;-86
2023/05/24 06:21:16;;;;;;;;;4.00;2.25;;;;;-146.67;27.96;74889.22;5103196;27;61876;-84
2023/05/24 06:23:45;;;;;;;;;0.00;0.00;;;;;-146.67;28.21;74907.22;5084236;27;62601;-83
2023/05/24 06:26:10;;;;;;;;;4.00;2.75;;;;;-146.67;28.29;74941.16;5082691;27;63005;-82
2023/05/24 06:28:37;;;;;;;;;7.75;3.00;;;;;-146.67;28.52;74971.09;5083840;27;61961;-81
2023/05/24 06:31:03;;;;;;;;;4.00;2.50;;;;;-146.67;28.61;74985.06;5081142;28;62302;-81
2023/05/24 06:33:29;;;;;;;;;1.50;1.00;;;;;-146.67;28.55;74981.09;5082377;27;62292;-81
2023/05/24 06:35:54;;;;;;;;;5.25;4.00;;;;;-146.67;28.48;74993.06;5082717;27;63157;-86
2023/05/24 06:38:20;;;;;;;;;9.75;4.00;;;;;-146.67;28.41;75009.03;5099414;27;61799;-83
2023/05/24 06:40:46;;;;;;;;;3.25;3.25;;;;;-146.67;28.88;75033.00;5082728;27;62218;-83
2023/05/24 06:43:11;;;;;;;;;4.50;3.50;;;;;-146.67;28.85;75046.97;5089631;27;62425;-83
2023/05/24 06:45:36;;;;;;;;;7.25;4.50;;;;;-146.67;29.05;75048.97;5089738;27;61875;-81
2023/05/24 06:48:02;;;;;;;;;3.00;3.00;;;;;-146.67;29.00;75064.94;5086522;27;61774;-83
2023/05/24 06:50:28;;;;;;;;;0.00;0.00;;;;;-146.67;29.17;75084.91;5083268;28;61748;-83
2023/05/24 06:52:53;;;;;;;;;2.25;1.75;;;;;-146.67;29.38;75088.91;5082092;27;62175;-84
2023/05/24 06:55:19;;;;;;;;;5.00;5.00;;;;;-146.67;29.29;75094.91;5073338;28;63434;-83
2023/05/24 06:57:44;;;;;;;;;3.00;1.25;;;;;-146.67;29.32;75090.91;5066427;28;62025;-83
2023/05/24 07:00:11;;;;;;;;;1.50;1.50;;;;;-146.67;29.01;75088.91;5083691;27;61849;-83
2023/05/24 07:02:40;;;;;;;;;1.75;1.75;;;;;-146.67;29.40;75110.88;5073865;27;61785;-83
2023/05/24 07:05:13;;;;;;;;;4.50;2.75;;;;;-146.67;29.53;75112.88;5062042;28;62367;-83
2023/05/24 07:07:42;;;;;;;;;5.25;5.25;;;;;-146.67;29.23;75128.84;5061659;28;61912;-84
2023/05/24 07:10:09;;;;;;;;;4.50;3.50;;;;;-146.67;29.48;75132.84;5065720;28;61998;-83
2023/05/24 07:12:38;;;;;;;;;2.75;1.50;;;;;-146.67;29.35;75142.81;5083741;27;61856;-84
2023/05/24 07:15:06;;;;;;;;;3.50;1.50;;;;;-146.67;29.70;75136.81;5114513;27;64324;-84
2023/05/24 07:17:31;;;;;;;;;3.00;0.75;;;;;-146.67;29.64;75142.81;5098016;27;61776;-85
2023/05/24 07:19:57;;;;;;;;;0.00;0.00;;;;;-146.67;29.64;75146.81;5083176;27;61956;-86
2023/05/24 07:22:24;;;;;;;;;3.00;3.00;;;;;-146.67;29.58;75148.81;5082898;28;62125;-85
2023/05/24 07:24:50;;;;;;;;;0.00;0.00;;;;;-146.67;29.47;75160.78;5082431;27;62037;-86
2023/05/24 07:27:15;;;;;;;;;0.00;0.00;;;;;-146.67;29.49;75168.78;5098503;27;61883;-85
2023/05/24 07:29:43;;;;;;;;;5.00;2.75;;;;;-146.67;29.93;75170.78;5083176;27;62021;-85
2023/05/24 07:32:08;;;;;;;;;4.50;4.50;;;;;-146.67;29.42;75164.78;5082960;27;61781;-86
2023/05/24 07:34:34;;;;;;;;;5.00;3.00;;;;;-146.67;29.53;75166.78;5082156;27;62895;-87
2023/05/24 07:37:02;;;;;;;;;4.50;4.00;;;;;-146.67;29.75;75160.78;5082536;27;61832;-87
2023/05/24 07:39:28;;;;;;;;;4.25;2.00;;;;;-146.67;29.14;75160.78;5082294;28;61984;-82
2023/05/24 07:41:53;;;;;;;;;2.25;2.25;;;;;-146.67;29.29;75164.78;5083002;28;61800;-81
2023/05/24 07:44:19;;;;;;;;;4.25;2.75;;;;;-146.67;29.24;75200.72;5097654;27;64001;-84
2023/05/24 07:46:44;;;;;;;;;5.25;2.50;;;;;-146.67;29.72;75208.72;5083235;27;62011;-85
2023/05/24 07:49:10;;;;;;;;;0.00;0.00;;;;;-146.67;29.49;75186.75;5080698;28;61899;-85
2023/05/24 07:51:35;;;;;;;;;4.00;2.75;;;;;-146.67;29.55;75180.75;5081946;28;61793;-85
2023/05/24 07:54:01;;;;;;;;;4.50;3.00;;;;;-146.67;29.41;75176.75;5076466;27;63719;-85
2023/05/24 07:56:26;;;;;;;;;3.50;3.25;;;;;-146.67;29.41;75172.78;5077392;28;61813;-85
2023/05/24 07:58:55;;;;;;;;;3.00;2.75;;;;;-146.67;29.09;75172.78;5061995;28;62002;-85
2023/05/24 08:01:21;;;;;;;;;3.00;1.75;;;;;-146.67;28.91;75182.75;5062340;28;61720;-83
2023/05/24 08:03:47;;;;;;;;;3.00;2.50;;;;;-146.67;28.97;75172.78;5106107;27;63607;-84
2023/05/24 08:06:12;;;;;;;;;1.75;1.75;;;;;-146.67;29.15;75172.78;5082057;27;61972;-83
2023/05/24 08:08:39;;;;;;;;;0.50;0.50;;;;;-146.67;29.22;75164.78;5081922;27;61894;-84
2023/05/24 08:11:07;;;;;;;;;4.75;3.00;;;;;-146.67;29.15;75160.78;5082270;28;62155;-86
2023/05/24 08:13:33;;;;;;;;;3.25;1.00;;;;;-146.67;29.20;75156.78;5080087;28;63520;-84
2023/05/24 08:15:59;;;;;;;;;2.25;1.00;;;;;-146.67;28.87;75146.81;5082375;28;62033;-87
2023/05/24 08:18:24;;;;;;;;;3.00;2.00;;;;;-146.67;28.80;75156.78;5081380;27;61682;-84
2023/05/24 08:20:50;;;;;;;;;2.75;2.75;;;;;-146.67;29.04;75158.78;5097478;27;62232;-84
2023/05/24 08:23:16;;;;;;;;;1.00;1.00;;;;;-146.67;28.77;75164.78;5081782;27;62476;-87
2023/05/24 08:25:41;;;;;;;;;4.00;3.00;;;;;-146.67;28.60;75172.78;5080165;28;61869;-86
2023/05/24 08:28:07;;;;;;;;;2.00;2.00;;;;;-146.67;28.61;75168.78;5077355;28;62028;-86
2023/05/24 08:30:32;;;;;;;;;2.25;2.00;;;;;-146.67;28.36;75174.75;5106873;27;62177;-85
2023/05/24 08:32:59;;;;;;;;;3.00;3.00;;;;;-146.67;28.56;75178.75;5075347;27;63752;-86
2023/05/24 08:35:25;;;;;;;;;0.00;0.00;;;;;-146.67;28.67;75162.78;5083453;27;62050;-84
2023/05/24 08:37:51;;;;;;;;;3.75;1.75;;;;;-146.67;28.53;75164.78;5087050;27;61944;-85
2023/05/24 08:40:16;;;;;;;;;2.75;1.75;;;;;-146.67;28.41;75156.78;5088231;27;61948;-83
2023/05/24 08:42:44;;;;;;;;;3.25;1.75;;;;;-146.67;28.61;75142.81;5085763;27;64458;-83
2023/05/24 08:45:16;;;;;;;;;4.50;1.25;;;;;-146.67;28.19;75146.81;5092873;27;61697;-81
2023/05/24 08:47:42;;;;;;;;;2.00;1.50;;;;;-146.67;28.20;75152.81;5083185;27;62257;-81
2023/05/24 08:50:08;;;;;;;;;4.75;2.75;;;;;-146.67;27.91;75142.81;5087704;27;62150;-82
2023/05/24 08:52:34;;;;;;;;;5.00;2.00;;;;;-146.67;27.93;75142.81;5079196;28;64911;-81
2023/05/24 08:55:01;;;;;;;;;1.25;1.25;;;;;-146.67;27.94;75134.81;5081061;28;61793;-83
2023/05/24 08:57:27;;;;;;;;;3.00;1.75;;;;;-146.67;27.90;75130.84;5088216;27;61925;-85
2023/05/24 08:59:54;;;;;;;;;2.00;2.00;;;;;-146.67;28.20;75116.84;5108984;27;62450;-88
2023/05/24 09:02:21;;;;;;;;;0.75;0.50;;;;;-146.67;27.88;75110.88;5079398;27;62039;-81
2023/05/24 09:04:52;;;;;;;;;0.00;0.00;;;;;-146.67;26.85;75106.88;5089684;27;62091;-84
2023/05/24 09:07:23;;;;;;;;;1.00;1.00;;;;;-146.67;27.44;75104.88;5073817;28;61925;-85
2023/05/24 09:09:55;;;;;;;;;1.00;0.25;;;;;-146.67;27.45;75090.91;5072268;28;61979;-85
2023/05/24 09:12:23;;;;;;;;;0.00;0.00;;;;;-146.67;27.77;75088.91;5082830;28;63941;-81
2023/05/24 09:14:48;;;;;;;;;3.25;0.25;;;;;-146.67;26.65;75076.94;5084786;27;61756;-82
2023/05/24 09:17:14;;;;;;;;;0.00;0.00;;;;;-146.67;27.08;75062.94;5099589;27;62119;-83
2023/05/24 09:19:45;;;;;;;;;2.75;1.25;;;;;-146.67;26.79;75064.94;5084095;27;62077;-84
2023/05/24 09:22:13;;;;;;;;;0.50;0.50;;;;;-146.67;26.38;75052.97;5074834;28;61752;-84
2023/05/24 09:24:42;;;;;;;;;2.50;1.25;;;;;-146.67;26.39;75054.97;5075447;28;62193;-81
2023/05/24 09:27:09;;;;;;;;;1.00;1.00;;;;;-146.67;26.45;75046.97;5117344;27;61870;-79
2023/05/24 09:29:35;;;;;;;;;2.75;0.75;;;;;-146.67;26.32;75042.97;5100161;27;61816;-79
2023/05/24 09:32:03;;;;;;;;;1.50;0.00;;;;;-146.67;25.52;75037.00;5082883;28;64076;-84
2023/05/24 09:34:28;;;;;;;;;2.25;1.00;;;;;-146.67;25.56;75035.00;5083330;28;61887;-82
2023/05/24 09:36:54;;;;;;;;;0.00;0.00;;;;;-146.67;25.62;75031.00;5069401;28;62636;-84
2023/05/24 09:39:20;;;;;;;;;1.00;1.00;;;;;-146.67;25.96;75025.00;5064880;27;61967;-80
2023/05/24 09:41:55;;;;;;;;;0.25;0.25;;;;;-146.67;25.48;74899.22;5082465;27;62078;-80
2023/05/24 09:44:29;;;;;;;;;0.00;0.00;;;;;-146.67;25.49;74981.09;5081180;28;62106;-81
2023/05/24 09:47:05;;;;;;;;;0.00;0.00;;;;;-146.67;25.59;74987.06;5080036;27;62054;-83
2023/05/24 09:49:31;;;;;;;;;2.00;0.50;;;;;-146.67;25.21;74993.06;5083255;27;61928;-83
2023/05/24 09:51:57;;;;;;;;;1.00;0.00;;;;;-146.67;25.17;74977.09;5082367;28;62167;-82
2023/05/24 09:54:26;;;;;;;;;1.00;1.00;;;;;-146.67;25.22;74965.09;5083869;28;62106;-87
2023/05/24 09:56:51;;;;;;;;;27.50;25.75;;;;;-146.67;25.36;74955.13;5085186;27;61911;-85
2023/05/24 09:59:18;;;;;;;;;0.00;0.00;;;;;-146.67;26.02;74927.16;5084775;28;61917;-81
2023/05/24 10:01:44;;;;;;;;;3.00;1.25;;;;;-146.67;25.82;74911.19;5083236;27;61993;-82
2023/05/24 10:04:11;;;;;;;;;1.00;0.75;;;;;-146.67;25.61;74907.22;5083732;27;61917;-82
2023/05/24 10:06:37;;;;;;;;;0.50;0.50;;;;;-146.67;25.44;74905.22;5083652;28;61703;-78
2023/05/24 10:09:05;;;;;;;;;4.00;2.50;;;;;-146.67;25.56;74895.22;5083021;28;62086;-83
2023/05/24 10:11:35;;;;;;;;;1.75;1.00;;;;;-146.67;25.50;74885.25;5083080;28;62678;-85
2023/05/24 10:14:04;;;;;;;;;0.00;0.00;;;;;-146.67;25.45;74867.28;5101988;27;61833;-84
2023/05/24 10:16:29;;;;;;;;;3.25;1.75;;;;;-146.67;25.51;74857.28;5104690;27;61966;-86
2023/05/24 10:18:55;;;;;;;;;1.25;1.25;;;;;-146.67;25.30;74843.31;5096909;27;61770;-85
2023/05/24 10:21:23;;;;;;;;;1.00;0.75;;;;;-146.67;25.36;74835.31;5088224;27;63510;-80
2023/05/24 10:23:53;;;;;;;;;0.00;0.00;;;;;-146.67;25.17;74809.38;5090437;27;61894;-89
2023/05/24 10:26:20;;;;;;;;;0.00;0.00;;;;;-146.67;24.62;74797.38;5091798;27;62207;-84
2023/05/24 10:28:53;;;;;;;;;0.00;0.00;;;;;-146.67;25.25;74775.44;5087053;27;62114;-89
2023/05/24 10:31:31;;;;;;;;;0.00;0.00;;;;;-146.67;24.53;74763.44;5088707;27;64965;-89
2023/05/24 10:33:59;;;;;;;;;0.00;0.00;;;;;-146.67;24.26;74753.47;5092472;27;62344;-89
2023/05/24 10:36:25;;;;;;;;;2.25;2.00;;;;;-146.67;24.03;74741.50;5089865;27;61953;-85
2023/05/24 10:39:11;;;;;;;;;0.00;0.00;;;;;-146.67;23.85;74739.50;5091285;27;61944;-85
2023/05/24 10:41:40;;;;;;;;;0.67;0.67;;;;;-146.67;24.16;74723.50;5099658;27;64850;-84
2023/05/24 10:44:11;;;;;;;;;0.00;0.00;;;;;-146.67;24.46;74707.53;5104491;27;61940;-85
2023/05/24 10:47:02;;;;;;;;;0.00;0.00;;;;;-146.67;24.59;74693.56;5116397;27;61951;-85
2023/05/24 10:49:28;;;;;;;;;1.00;1.00;;;;;-146.67;23.94;74693.56;5082144;28;62209;-86
2023/05/24 10:52:01;;;;;;;;;0.00;0.00;;;;;-146.67;23.90;74681.59;5081738;28;63805;-81
2023/05/24 10:54:27;;;;;;;;;0.00;0.00;;;;;-146.67;23.74;74671.59;5076651;28;61773;-84
2023/05/24 10:56:52;;;;;;;;;0.00;0.00;;;;;-146.67;24.02;74661.63;5063414;28;61784;-86
2023/05/24 10:59:30;;;;;;;;;0.00;0.00;;;;;-146.67;23.54;74651.66;5063515;28;61696;-86
2023/05/24 11:02:00;;;;;;;;;2.33;0.00;;;;;-146.67;23.94;74643.66;5107505;27;63867;-85
2023/05/24 11:04:30;;;;;;;;;0.00;0.00;;;;;-146.67;23.70;74623.69;5083585;28;61864;-85
2023/05/24 11:07:04;;;;;;;;;0.00;0.00;;;;;-146.67;23.67;74607.72;5084728;28;62126;-85
2023/05/24 11:09:31;;;;;;;;;0.00;0.00;;;;;-146.67;23.06;74603.72;5082378;28;61992;-85
2023/05/24 11:12:02;;;;;;;;;0.00;0.00;;;;;-146.67;23.37;74577.78;5092048;27;65092;-86
2023/05/24 11:14:29;;;;;;;;;2.00;1.00;;;;;-146.67;23.58;74565.78;5061573;28;61878;-84
2023/05/24 11:16:55;;;;;;;;;0.00;0.00;;;;;-146.67;23.47;74553.81;5063764;27;61812;-83